sensor_id;sensor_type;location;lat;lon;timestamp;P1;durP1;ratioP1;P2;durP2;ratioP2
21274;SDS011;36472;52.170;20.884;2024-02-04T00:01:01;6.05;;;2.50;;
21274;SDS011;36472;52.170;20.884;2024-02-04T00:03:50;5.70;;;2.15;;
21274;SDS011;36472;52.170;20.884;2024-02-04T00:06:19;5.78;;;2.22;;
21274;SDS011;36472;52.170;20.884;2024-02-04T00:08:48;12.68;;;2.75;;
21274;SDS011;36472;52.170;20.884;2024-02-04T00:11:17;6.68;;;2.15;;
21274;SDS011;36472;52.170;20.884;2024-02-04T00:13:48;7.47;;;2.65;;
21274;SDS011;36472;52.170;20.884;2024-02-04T00:16:17;8.30;;;2.33;;
21274;SDS011;36472;52.170;20.884;2024-02-04T00:18:46;6.72;;;2.17;;
21274;SDS011;36472;52.170;20.884;2024-02-04T00:21:15;5.93;;;2.45;;
21274;SDS011;36472;52.170;20.884;2024-02-04T00:23:44;10.82;;;2.72;;
21274;SDS011;36472;52.170;20.884;2024-02-04T00:26:13;6.95;;;2.33;;
21274;SDS011;36472;52.170;20.884;2024-02-04T00:28:42;10.05;;;3.00;;
21274;SDS011;36472;52.170;20.884;2024-02-04T00:31:12;8.70;;;3.03;;
21274;SDS011;36472;52.170;20.884;2024-02-04T00:33:41;7.05;;;2.60;;
21274;SDS011;36472;52.170;20.884;2024-02-04T00:36:10;11.20;;;2.65;;
21274;SDS011;36472;52.170;20.884;2024-02-04T00:38:40;8.50;;;3.35;;
21274;SDS011;36472;52.170;20.884;2024-02-04T00:41:08;9.55;;;2.72;;
21274;SDS011;36472;52.170;20.884;2024-02-04T00:43:38;9.07;;;3.30;;
21274;SDS011;36472;52.170;20.884;2024-02-04T00:46:06;8.77;;;2.83;;
21274;SDS011;36472;52.170;20.884;2024-02-04T00:48:38;8.63;;;3.15;;
21274;SDS011;36472;52.170;20.884;2024-02-04T00:51:09;7.68;;;3.13;;
21274;SDS011;36472;52.170;20.884;2024-02-04T00:53:40;7.45;;;3.33;;
21274;SDS011;36472;52.170;20.884;2024-02-04T00:56:09;9.68;;;3.05;;
21274;SDS011;36472;52.170;20.884;2024-02-04T00:58:38;7.30;;;3.17;;
21274;SDS011;36472;52.170;20.884;2024-02-04T01:01:07;11.05;;;3.17;;
21274;SDS011;36472;52.170;20.884;2024-02-04T01:03:36;7.22;;;2.92;;
21274;SDS011;36472;52.170;20.884;2024-02-04T01:06:07;10.07;;;3.53;;
21274;SDS011;36472;52.170;20.884;2024-02-04T01:08:36;8.52;;;2.85;;
21274;SDS011;36472;52.170;20.884;2024-02-04T01:11:05;9.32;;;3.35;;
21274;SDS011;36472;52.170;20.884;2024-02-04T01:13:34;7.10;;;3.17;;
21274;SDS011;36472;52.170;20.884;2024-02-04T01:16:03;7.82;;;2.83;;
21274;SDS011;36472;52.170;20.884;2024-02-04T01:18:33;6.75;;;2.65;;
21274;SDS011;36472;52.170;20.884;2024-02-04T01:21:04;8.60;;;3.15;;
21274;SDS011;36472;52.170;20.884;2024-02-04T01:23:34;10.57;;;3.22;;
21274;SDS011;36472;52.170;20.884;2024-02-04T01:26:03;6.65;;;2.80;;
21274;SDS011;36472;52.170;20.884;2024-02-04T01:28:32;8.25;;;3.45;;
21274;SDS011;36472;52.170;20.884;2024-02-04T01:31:02;10.23;;;3.10;;
21274;SDS011;36472;52.170;20.884;2024-02-04T01:33:31;7.38;;;2.92;;
21274;SDS011;36472;52.170;20.884;2024-02-04T01:36:00;10.15;;;2.88;;
21274;SDS011;36472;52.170;20.884;2024-02-04T01:38:31;9.10;;;3.33;;
21274;SDS011;36472;52.170;20.884;2024-02-04T01:41:00;8.70;;;3.20;;
21274;SDS011;36472;52.170;20.884;2024-02-04T01:43:29;9.25;;;3.28;;
21274;SDS011;36472;52.170;20.884;2024-02-04T01:45:58;7.18;;;2.90;;
21274;SDS011;36472;52.170;20.884;2024-02-04T01:48:28;8.57;;;2.80;;
21274;SDS011;36472;52.170;20.884;2024-02-04T01:50:57;5.55;;;2.90;;
21274;SDS011;36472;52.170;20.884;2024-02-04T01:53:31;9.40;;;2.72;;
21274;SDS011;36472;52.170;20.884;2024-02-04T01:56:02;6.32;;;3.10;;
21274;SDS011;36472;52.170;20.884;2024-02-04T01:58:32;8.77;;;2.88;;
21274;SDS011;36472;52.170;20.884;2024-02-04T02:01:02;7.78;;;2.72;;
21274;SDS011;36472;52.170;20.884;2024-02-04T02:03:32;6.50;;;2.78;;
21274;SDS011;36472;52.170;20.884;2024-02-04T02:06:04;7.95;;;2.92;;
21274;SDS011;36472;52.170;20.884;2024-02-04T02:08:35;7.40;;;3.13;;
21274;SDS011;36472;52.170;20.884;2024-02-04T02:11:05;7.13;;;2.50;;
21274;SDS011;36472;52.170;20.884;2024-02-04T02:13:41;8.35;;;2.78;;
21274;SDS011;36472;52.170;20.884;2024-02-04T02:16:16;7.05;;;2.53;;
21274;SDS011;36472;52.170;20.884;2024-02-04T02:18:52;8.23;;;2.88;;
21274;SDS011;36472;52.170;20.884;2024-02-04T02:21:30;9.48;;;3.00;;
21274;SDS011;36472;52.170;20.884;2024-02-04T02:27:00;7.50;;;2.45;;
21274;SDS011;36472;52.170;20.884;2024-02-04T02:29:30;8.02;;;3.00;;
21274;SDS011;36472;52.170;20.884;2024-02-04T02:31:59;6.75;;;2.03;;
21274;SDS011;36472;52.170;20.884;2024-02-04T02:34:30;8.05;;;2.40;;
21274;SDS011;36472;52.170;20.884;2024-02-04T02:37:08;9.85;;;2.72;;
21274;SDS011;36472;52.170;20.884;2024-02-04T02:39:52;5.15;;;2.17;;
21274;SDS011;36472;52.170;20.884;2024-02-04T02:42:28;6.97;;;2.63;;
21274;SDS011;36472;52.170;20.884;2024-02-04T02:44:59;5.57;;;2.38;;
21274;SDS011;36472;52.170;20.884;2024-02-04T02:47:30;6.50;;;2.72;;
21274;SDS011;36472;52.170;20.884;2024-02-04T02:50:00;4.97;;;2.20;;
21274;SDS011;36472;52.170;20.884;2024-02-04T02:52:29;7.30;;;1.95;;
21274;SDS011;36472;52.170;20.884;2024-02-04T02:55:00;6.60;;;2.42;;
21274;SDS011;36472;52.170;20.884;2024-02-04T02:57:29;7.38;;;2.65;;
21274;SDS011;36472;52.170;20.884;2024-02-04T02:59:58;4.82;;;1.85;;
21274;SDS011;36472;52.170;20.884;2024-02-04T03:02:27;9.45;;;2.97;;
21274;SDS011;36472;52.170;20.884;2024-02-04T03:04:57;8.25;;;2.40;;
21274;SDS011;36472;52.170;20.884;2024-02-04T03:07:26;9.00;;;2.65;;
21274;SDS011;36472;52.170;20.884;2024-02-04T03:09:55;8.52;;;2.47;;
21274;SDS011;36472;52.170;20.884;2024-02-04T03:12:25;8.98;;;3.38;;
21274;SDS011;36472;52.170;20.884;2024-02-04T03:14:54;6.75;;;2.28;;
21274;SDS011;36472;52.170;20.884;2024-02-04T03:17:23;7.88;;;2.45;;
21274;SDS011;36472;52.170;20.884;2024-02-04T03:19:53;6.07;;;2.30;;
21274;SDS011;36472;52.170;20.884;2024-02-04T03:22:22;8.82;;;2.67;;
21274;SDS011;36472;52.170;20.884;2024-02-04T03:24:52;10.18;;;2.72;;
21274;SDS011;36472;52.170;20.884;2024-02-04T03:27:21;5.60;;;2.33;;
21274;SDS011;36472;52.170;20.884;2024-02-04T03:29:52;6.50;;;1.88;;
21274;SDS011;36472;52.170;20.884;2024-02-04T03:32:22;10.23;;;2.25;;
21274;SDS011;36472;52.170;20.884;2024-02-04T03:34:51;6.20;;;1.92;;
21274;SDS011;36472;52.170;20.884;2024-02-04T03:37:20;5.32;;;1.98;;
21274;SDS011;36472;52.170;20.884;2024-02-04T03:39:49;7.35;;;2.28;;
21274;SDS011;36472;52.170;20.884;2024-02-04T03:42:18;7.05;;;2.03;;
21274;SDS011;36472;52.170;20.884;2024-02-04T03:44:48;6.32;;;2.05;;
21274;SDS011;36472;52.170;20.884;2024-02-04T03:47:19;7.15;;;2.60;;
21274;SDS011;36472;52.170;20.884;2024-02-04T03:49:48;7.75;;;2.30;;
21274;SDS011;36472;52.170;20.884;2024-02-04T03:52:17;10.23;;;2.50;;
21274;SDS011;36472;52.170;20.884;2024-02-04T03:54:46;7.03;;;2.10;;
21274;SDS011;36472;52.170;20.884;2024-02-04T03:57:15;8.52;;;2.70;;
21274;SDS011;36472;52.170;20.884;2024-02-04T03:59:44;6.90;;;2.58;;
21274;SDS011;36472;52.170;20.884;2024-02-04T04:02:13;6.10;;;1.88;;
21274;SDS011;36472;52.170;20.884;2024-02-04T04:04:44;7.60;;;2.70;;
21274;SDS011;36472;52.170;20.884;2024-02-04T04:07:14;5.03;;;1.77;;
21274;SDS011;36472;52.170;20.884;2024-02-04T04:09:44;5.53;;;1.65;;
21274;SDS011;36472;52.170;20.884;2024-02-04T04:12:13;6.38;;;2.20;;
21274;SDS011;36472;52.170;20.884;2024-02-04T04:14:42;9.00;;;2.75;;
21274;SDS011;36472;52.170;20.884;2024-02-04T04:17:10;7.20;;;1.83;;
21274;SDS011;36472;52.170;20.884;2024-02-04T04:19:40;6.72;;;1.90;;
21274;SDS011;36472;52.170;20.884;2024-02-04T04:22:10;8.48;;;2.08;;
21274;SDS011;36472;52.170;20.884;2024-02-04T04:24:39;4.03;;;1.92;;
21274;SDS011;36472;52.170;20.884;2024-02-04T04:27:08;4.65;;;1.88;;
21274;SDS011;36472;52.170;20.884;2024-02-04T04:29:37;5.57;;;1.88;;
21274;SDS011;36472;52.170;20.884;2024-02-04T04:32:06;4.20;;;1.60;;
21274;SDS011;36472;52.170;20.884;2024-02-04T04:34:36;5.90;;;2.00;;
21274;SDS011;36472;52.170;20.884;2024-02-04T04:37:04;7.90;;;2.20;;
21274;SDS011;36472;52.170;20.884;2024-02-04T04:39:35;6.47;;;1.90;;
21274;SDS011;36472;52.170;20.884;2024-02-04T04:42:04;6.80;;;2.08;;
21274;SDS011;36472;52.170;20.884;2024-02-04T04:44:34;6.88;;;1.98;;
21274;SDS011;36472;52.170;20.884;2024-02-04T04:47:03;6.22;;;2.00;;
21274;SDS011;36472;52.170;20.884;2024-02-04T04:49:32;6.03;;;1.92;;
21274;SDS011;36472;52.170;20.884;2024-02-04T04:52:01;6.38;;;1.92;;
21274;SDS011;36472;52.170;20.884;2024-02-04T04:54:31;12.70;;;2.95;;
21274;SDS011;36472;52.170;20.884;2024-02-04T04:57:01;9.30;;;2.38;;
21274;SDS011;36472;52.170;20.884;2024-02-04T04:59:30;6.72;;;1.92;;
21274;SDS011;36472;52.170;20.884;2024-02-04T05:01:59;5.22;;;2.05;;
21274;SDS011;36472;52.170;20.884;2024-02-04T05:04:28;3.92;;;1.70;;
21274;SDS011;36472;52.170;20.884;2024-02-04T05:06:57;6.70;;;2.00;;
21274;SDS011;36472;52.170;20.884;2024-02-04T05:09:26;10.07;;;2.72;;
21274;SDS011;36472;52.170;20.884;2024-02-04T05:11:55;10.70;;;2.83;;
21274;SDS011;36472;52.170;20.884;2024-02-04T05:14:25;7.53;;;2.05;;
21274;SDS011;36472;52.170;20.884;2024-02-04T05:16:54;7.60;;;2.38;;
21274;SDS011;36472;52.170;20.884;2024-02-04T05:19:23;7.93;;;2.55;;
21274;SDS011;36472;52.170;20.884;2024-02-04T05:21:52;9.35;;;2.83;;
21274;SDS011;36472;52.170;20.884;2024-02-04T05:24:22;5.78;;;2.53;;
21274;SDS011;36472;52.170;20.884;2024-02-04T05:26:50;6.75;;;2.42;;
21274;SDS011;36472;52.170;20.884;2024-02-04T05:29:19;10.82;;;2.65;;
21274;SDS011;36472;52.170;20.884;2024-02-04T05:31:50;8.07;;;2.40;;
21274;SDS011;36472;52.170;20.884;2024-02-04T05:34:19;8.30;;;2.15;;
21274;SDS011;36472;52.170;20.884;2024-02-04T05:36:48;6.28;;;1.80;;
21274;SDS011;36472;52.170;20.884;2024-02-04T05:39:17;9.07;;;2.75;;
21274;SDS011;36472;52.170;20.884;2024-02-04T05:41:46;9.18;;;2.00;;
21274;SDS011;36472;52.170;20.884;2024-02-04T05:44:15;5.32;;;2.15;;
21274;SDS011;36472;52.170;20.884;2024-02-04T05:46:44;7.85;;;2.20;;
21274;SDS011;36472;52.170;20.884;2024-02-04T05:49:14;5.60;;;2.55;;
21274;SDS011;36472;52.170;20.884;2024-02-04T05:51:44;7.47;;;2.20;;
21274;SDS011;36472;52.170;20.884;2024-02-04T05:54:13;8.25;;;2.72;;
21274;SDS011;36472;52.170;20.884;2024-02-04T05:56:42;6.05;;;2.00;;
21274;SDS011;36472;52.170;20.884;2024-02-04T05:59:11;8.23;;;2.72;;
21274;SDS011;36472;52.170;20.884;2024-02-04T06:01:40;7.97;;;2.13;;
21274;SDS011;36472;52.170;20.884;2024-02-04T06:04:09;6.75;;;1.92;;
21274;SDS011;36472;52.170;20.884;2024-02-04T06:06:40;5.63;;;1.92;;
21274;SDS011;36472;52.170;20.884;2024-02-04T06:09:09;7.45;;;2.20;;
21274;SDS011;36472;52.170;20.884;2024-02-04T06:11:38;10.25;;;2.13;;
21274;SDS011;36472;52.170;20.884;2024-02-04T06:14:07;5.82;;;2.28;;
21274;SDS011;36472;52.170;20.884;2024-02-04T06:16:36;6.13;;;2.13;;
21274;SDS011;36472;52.170;20.884;2024-02-04T06:19:05;10.23;;;2.83;;
21274;SDS011;36472;52.170;20.884;2024-02-04T06:21:36;12.35;;;3.17;;
21274;SDS011;36472;52.170;20.884;2024-02-04T06:24:07;7.57;;;2.55;;
21274;SDS011;36472;52.170;20.884;2024-02-04T06:26:37;11.18;;;2.80;;
21274;SDS011;36472;52.170;20.884;2024-02-04T06:29:06;8.27;;;2.35;;
21274;SDS011;36472;52.170;20.884;2024-02-04T06:31:35;6.07;;;2.22;;
21274;SDS011;36472;52.170;20.884;2024-02-04T06:34:04;7.93;;;2.30;;
21274;SDS011;36472;52.170;20.884;2024-02-04T06:36:33;10.18;;;2.50;;
21274;SDS011;36472;52.170;20.884;2024-02-04T06:39:03;10.10;;;2.38;;
21274;SDS011;36472;52.170;20.884;2024-02-04T06:41:35;6.32;;;2.10;;
21274;SDS011;36472;52.170;20.884;2024-02-04T06:44:04;7.53;;;2.38;;
21274;SDS011;36472;52.170;20.884;2024-02-04T06:46:33;6.05;;;2.20;;
21274;SDS011;36472;52.170;20.884;2024-02-04T06:49:03;9.63;;;2.33;;
21274;SDS011;36472;52.170;20.884;2024-02-04T06:51:32;6.60;;;2.10;;
21274;SDS011;36472;52.170;20.884;2024-02-04T06:54:01;6.95;;;2.10;;
21274;SDS011;36472;52.170;20.884;2024-02-04T06:56:30;6.85;;;2.03;;
21274;SDS011;36472;52.170;20.884;2024-02-04T06:59:00;8.88;;;2.30;;
21274;SDS011;36472;52.170;20.884;2024-02-04T07:01:29;6.55;;;2.20;;
21274;SDS011;36472;52.170;20.884;2024-02-04T07:03:58;9.15;;;2.13;;
21274;SDS011;36472;52.170;20.884;2024-02-04T07:06:27;7.47;;;2.25;;
21274;SDS011;36472;52.170;20.884;2024-02-04T07:08:56;10.23;;;2.83;;
21274;SDS011;36472;52.170;20.884;2024-02-04T07:11:25;7.95;;;2.67;;
21274;SDS011;36472;52.170;20.884;2024-02-04T07:13:55;8.32;;;2.33;;
21274;SDS011;36472;52.170;20.884;2024-02-04T07:16:28;7.75;;;3.10;;
21274;SDS011;36472;52.170;20.884;2024-02-04T07:18:57;4.55;;;2.30;;
21274;SDS011;36472;52.170;20.884;2024-02-04T07:21:26;7.55;;;2.55;;
21274;SDS011;36472;52.170;20.884;2024-02-04T07:23:55;9.88;;;2.33;;
21274;SDS011;36472;52.170;20.884;2024-02-04T07:26:24;10.02;;;2.97;;
21274;SDS011;36472;52.170;20.884;2024-02-04T07:28:53;7.05;;;2.85;;
21274;SDS011;36472;52.170;20.884;2024-02-04T07:31:22;6.72;;;1.95;;
21274;SDS011;36472;52.170;20.884;2024-02-04T07:33:52;8.98;;;2.28;;
21274;SDS011;36472;52.170;20.884;2024-02-04T07:36:21;9.73;;;2.42;;
21274;SDS011;36472;52.170;20.884;2024-02-04T07:38:50;8.52;;;2.53;;
21274;SDS011;36472;52.170;20.884;2024-02-04T07:41:22;13.35;;;2.85;;
21274;SDS011;36472;52.170;20.884;2024-02-04T07:43:51;10.13;;;2.70;;
21274;SDS011;36472;52.170;20.884;2024-02-04T07:46:20;6.57;;;2.03;;
21274;SDS011;36472;52.170;20.884;2024-02-04T07:48:49;8.85;;;2.53;;
21274;SDS011;36472;52.170;20.884;2024-02-04T07:51:20;7.40;;;2.70;;
21274;SDS011;36472;52.170;20.884;2024-02-04T07:53:49;7.65;;;2.78;;
21274;SDS011;36472;52.170;20.884;2024-02-04T07:56:18;9.95;;;2.70;;
21274;SDS011;36472;52.170;20.884;2024-02-04T07:58:47;10.05;;;2.58;;
21274;SDS011;36472;52.170;20.884;2024-02-04T08:01:17;9.30;;;2.92;;
21274;SDS011;36472;52.170;20.884;2024-02-04T08:03:47;11.25;;;2.90;;
21274;SDS011;36472;52.170;20.884;2024-02-04T08:06:16;8.45;;;2.30;;
21274;SDS011;36472;52.170;20.884;2024-02-04T08:08:46;7.68;;;2.80;;
21274;SDS011;36472;52.170;20.884;2024-02-04T08:11:18;9.18;;;2.45;;
21274;SDS011;36472;52.170;20.884;2024-02-04T08:13:47;6.65;;;2.50;;
21274;SDS011;36472;52.170;20.884;2024-02-04T08:16:16;6.28;;;2.63;;
21274;SDS011;36472;52.170;20.884;2024-02-04T08:18:45;6.90;;;2.55;;
21274;SDS011;36472;52.170;20.884;2024-02-04T08:21:14;14.25;;;3.63;;
21274;SDS011;36472;52.170;20.884;2024-02-04T08:23:43;5.50;;;2.58;;
21274;SDS011;36472;52.170;20.884;2024-02-04T08:26:13;7.20;;;2.65;;
21274;SDS011;36472;52.170;20.884;2024-02-04T08:28:43;13.18;;;2.85;;
21274;SDS011;36472;52.170;20.884;2024-02-04T08:31:12;18.48;;;7.65;;
21274;SDS011;36472;52.170;20.884;2024-02-04T08:33:41;20.65;;;10.48;;
21274;SDS011;36472;52.170;20.884;2024-02-04T08:36:10;15.45;;;6.18;;
21274;SDS011;36472;52.170;20.884;2024-02-04T08:38:39;7.70;;;3.33;;
21274;SDS011;36472;52.170;20.884;2024-02-04T08:41:08;10.80;;;2.47;;
21274;SDS011;36472;52.170;20.884;2024-02-04T08:43:38;9.13;;;3.33;;
21274;SDS011;36472;52.170;20.884;2024-02-04T08:46:07;8.10;;;2.60;;
21274;SDS011;36472;52.170;20.884;2024-02-04T08:48:40;8.73;;;2.45;;
21274;SDS011;36472;52.170;20.884;2024-02-04T08:51:10;10.10;;;2.70;;
21274;SDS011;36472;52.170;20.884;2024-02-04T08:53:40;7.85;;;3.13;;
21274;SDS011;36472;52.170;20.884;2024-02-04T08:56:09;8.60;;;2.90;;
21274;SDS011;36472;52.170;20.884;2024-02-04T08:58:40;10.93;;;3.08;;
21274;SDS011;36472;52.170;20.884;2024-02-04T09:01:09;6.50;;;2.70;;
21274;SDS011;36472;52.170;20.884;2024-02-04T09:03:38;10.77;;;2.50;;
21274;SDS011;36472;52.170;20.884;2024-02-04T09:06:07;9.52;;;2.92;;
21274;SDS011;36472;52.170;20.884;2024-02-04T09:08:36;14.07;;;4.00;;
21274;SDS011;36472;52.170;20.884;2024-02-04T09:11:05;9.70;;;2.55;;
21274;SDS011;36472;52.170;20.884;2024-02-04T09:13:34;8.98;;;2.92;;
21274;SDS011;36472;52.170;20.884;2024-02-04T09:16:05;9.52;;;3.30;;
21274;SDS011;36472;52.170;20.884;2024-02-04T09:18:35;9.60;;;2.70;;
21274;SDS011;36472;52.170;20.884;2024-02-04T09:21:04;10.23;;;2.92;;
21274;SDS011;36472;52.170;20.884;2024-02-04T09:23:35;7.93;;;2.90;;
21274;SDS011;36472;52.170;20.884;2024-02-04T09:26:04;10.15;;;2.60;;
21274;SDS011;36472;52.170;20.884;2024-02-04T09:28:33;8.70;;;2.97;;
21274;SDS011;36472;52.170;20.884;2024-02-04T09:31:02;8.90;;;2.88;;
21274;SDS011;36472;52.170;20.884;2024-02-04T09:33:32;8.75;;;2.50;;
21274;SDS011;36472;52.170;20.884;2024-02-04T09:36:04;12.48;;;3.10;;
21274;SDS011;36472;52.170;20.884;2024-02-04T09:38:34;7.05;;;2.60;;
21274;SDS011;36472;52.170;20.884;2024-02-04T09:41:03;9.80;;;2.92;;
21274;SDS011;36472;52.170;20.884;2024-02-04T09:43:32;9.55;;;3.03;;
21274;SDS011;36472;52.170;20.884;2024-02-04T09:46:05;9.23;;;2.55;;
21274;SDS011;36472;52.170;20.884;2024-02-04T09:48:36;5.28;;;2.70;;
21274;SDS011;36472;52.170;20.884;2024-02-04T09:51:09;8.93;;;2.88;;
21274;SDS011;36472;52.170;20.884;2024-02-04T09:53:41;11.98;;;3.92;;
21274;SDS011;36472;52.170;20.884;2024-02-04T09:56:12;14.57;;;3.28;;
21274;SDS011;36472;52.170;20.884;2024-02-04T09:58:45;11.32;;;3.60;;
21274;SDS011;36472;52.170;20.884;2024-02-04T10:01:14;9.48;;;2.80;;
21274;SDS011;36472;52.170;20.884;2024-02-04T10:03:48;10.82;;;2.95;;
21274;SDS011;36472;52.170;20.884;2024-02-04T10:06:17;6.90;;;3.15;;
21274;SDS011;36472;52.170;20.884;2024-02-04T10:08:47;9.07;;;3.40;;
21274;SDS011;36472;52.170;20.884;2024-02-04T10:11:16;11.32;;;3.35;;
21274;SDS011;36472;52.170;20.884;2024-02-04T10:13:45;9.50;;;3.22;;
21274;SDS011;36472;52.170;20.884;2024-02-04T10:16:16;10.50;;;3.58;;
21274;SDS011;36472;52.170;20.884;2024-02-04T10:18:46;8.52;;;2.70;;
21274;SDS011;36472;52.170;20.884;2024-02-04T10:21:17;7.50;;;2.90;;
21274;SDS011;36472;52.170;20.884;2024-02-04T10:23:47;10.82;;;3.28;;
21274;SDS011;36472;52.170;20.884;2024-02-04T10:26:17;10.90;;;3.33;;
21274;SDS011;36472;52.170;20.884;2024-02-04T10:28:48;9.85;;;3.17;;
21274;SDS011;36472;52.170;20.884;2024-02-04T10:31:17;8.70;;;3.40;;
21274;SDS011;36472;52.170;20.884;2024-02-04T10:33:47;9.82;;;3.25;;
21274;SDS011;36472;52.170;20.884;2024-02-04T10:36:18;9.00;;;3.35;;
21274;SDS011;36472;52.170;20.884;2024-02-04T10:38:48;8.05;;;2.92;;
21274;SDS011;36472;52.170;20.884;2024-02-04T10:41:17;9.55;;;3.15;;
21274;SDS011;36472;52.170;20.884;2024-02-04T10:43:46;10.32;;;3.47;;
21274;SDS011;36472;52.170;20.884;2024-02-04T10:46:17;12.48;;;3.10;;
21274;SDS011;36472;52.170;20.884;2024-02-04T10:48:51;11.00;;;3.78;;
21274;SDS011;36472;52.170;20.884;2024-02-04T10:51:24;9.95;;;3.00;;
21274;SDS011;36472;52.170;20.884;2024-02-04T10:53:55;7.93;;;2.88;;
21274;SDS011;36472;52.170;20.884;2024-02-04T10:56:26;10.18;;;2.35;;
21274;SDS011;36472;52.170;20.884;2024-02-04T10:59:05;7.88;;;2.60;;
21274;SDS011;36472;52.170;20.884;2024-02-04T11:01:36;9.93;;;2.72;;
21274;SDS011;36472;52.170;20.884;2024-02-04T11:04:07;10.85;;;3.22;;
21274;SDS011;36472;52.170;20.884;2024-02-04T11:06:39;9.48;;;3.08;;
21274;SDS011;36472;52.170;20.884;2024-02-04T11:09:11;7.97;;;2.80;;
21274;SDS011;36472;52.170;20.884;2024-02-04T11:11:42;12.10;;;4.13;;
21274;SDS011;36472;52.170;20.884;2024-02-04T11:14:13;10.85;;;3.00;;
21274;SDS011;36472;52.170;20.884;2024-02-04T11:16:57;10.82;;;3.10;;
21274;SDS011;36472;52.170;20.884;2024-02-04T11:19:55;8.13;;;2.88;;
21274;SDS011;36472;52.170;20.884;2024-02-04T11:22:52;13.13;;;3.28;;
21274;SDS011;36472;52.170;20.884;2024-02-04T11:25:43;9.80;;;3.50;;
21274;SDS011;36472;52.170;20.884;2024-02-04T11:28:15;5.43;;;2.75;;
21274;SDS011;36472;52.170;20.884;2024-02-04T11:30:47;7.13;;;2.60;;
21274;SDS011;36472;52.170;20.884;2024-02-04T11:33:17;8.27;;;2.63;;
21274;SDS011;36472;52.170;20.884;2024-02-04T11:35:59;8.35;;;2.90;;
21274;SDS011;36472;52.170;20.884;2024-02-04T11:38:31;7.70;;;2.85;;
21274;SDS011;36472;52.170;20.884;2024-02-04T11:41:04;8.27;;;2.67;;
21274;SDS011;36472;52.170;20.884;2024-02-04T11:43:34;8.77;;;2.70;;
21274;SDS011;36472;52.170;20.884;2024-02-04T11:46:06;7.75;;;2.90;;
21274;SDS011;36472;52.170;20.884;2024-02-04T11:48:50;9.50;;;2.95;;
21274;SDS011;36472;52.170;20.884;2024-02-04T11:51:23;9.95;;;2.95;;
21274;SDS011;36472;52.170;20.884;2024-02-04T11:53:53;9.95;;;3.40;;
21274;SDS011;36472;52.170;20.884;2024-02-04T11:56:24;10.82;;;2.55;;
21274;SDS011;36472;52.170;20.884;2024-02-04T11:58:53;11.13;;;3.10;;
21274;SDS011;36472;52.170;20.884;2024-02-04T12:01:23;9.27;;;3.05;;
21274;SDS011;36472;52.170;20.884;2024-02-04T12:03:53;9.50;;;3.20;;
21274;SDS011;36472;52.170;20.884;2024-02-04T12:06:24;7.03;;;3.10;;
21274;SDS011;36472;52.170;20.884;2024-02-04T12:08:54;4.60;;;2.80;;
21274;SDS011;36472;52.170;20.884;2024-02-04T12:11:23;10.50;;;3.25;;
21274;SDS011;36472;52.170;20.884;2024-02-04T12:13:53;11.00;;;3.60;;
21274;SDS011;36472;52.170;20.884;2024-02-04T12:16:24;10.80;;;3.63;;
21274;SDS011;36472;52.170;20.884;2024-02-04T12:18:53;10.10;;;3.95;;
21274;SDS011;36472;52.170;20.884;2024-02-04T12:21:23;6.95;;;3.42;;
21274;SDS011;36472;52.170;20.884;2024-02-04T12:23:53;7.53;;;3.58;;
21274;SDS011;36472;52.170;20.884;2024-02-04T12:26:23;11.25;;;4.50;;
21274;SDS011;36472;52.170;20.884;2024-02-04T12:28:52;7.18;;;2.92;;
21274;SDS011;36472;52.170;20.884;2024-02-04T12:31:24;12.63;;;4.22;;
21274;SDS011;36472;52.170;20.884;2024-02-04T12:33:56;13.73;;;4.13;;
21274;SDS011;36472;52.170;20.884;2024-02-04T12:36:28;10.70;;;4.05;;
21274;SDS011;36472;52.170;20.884;2024-02-04T12:39:00;8.55;;;3.60;;
21274;SDS011;36472;52.170;20.884;2024-02-04T12:41:30;9.57;;;3.55;;
21274;SDS011;36472;52.170;20.884;2024-02-04T12:44:00;9.65;;;3.42;;
21274;SDS011;36472;52.170;20.884;2024-02-04T12:46:31;12.50;;;3.85;;
21274;SDS011;36472;52.170;20.884;2024-02-04T12:49:00;9.05;;;3.42;;
21274;SDS011;36472;52.170;20.884;2024-02-04T12:51:34;6.55;;;3.00;;
21274;SDS011;36472;52.170;20.884;2024-02-04T12:54:05;11.48;;;4.07;;
21274;SDS011;36472;52.170;20.884;2024-02-04T12:56:42;8.30;;;3.13;;
21274;SDS011;36472;52.170;20.884;2024-02-04T12:59:26;9.48;;;3.42;;
21274;SDS011;36472;52.170;20.884;2024-02-04T13:01:57;8.55;;;3.17;;
21274;SDS011;36472;52.170;20.884;2024-02-04T13:04:33;10.32;;;3.35;;
21274;SDS011;36472;52.170;20.884;2024-02-04T13:07:07;7.95;;;3.55;;
21274;SDS011;36472;52.170;20.884;2024-02-04T13:09:38;9.45;;;3.53;;
21274;SDS011;36472;52.170;20.884;2024-02-04T13:12:08;9.55;;;4.03;;
21274;SDS011;36472;52.170;20.884;2024-02-04T13:14:38;12.50;;;4.03;;
21274;SDS011;36472;52.170;20.884;2024-02-04T13:17:11;9.20;;;3.78;;
21274;SDS011;36472;52.170;20.884;2024-02-04T13:19:40;11.00;;;3.85;;
21274;SDS011;36472;52.170;20.884;2024-02-04T13:22:11;9.70;;;3.28;;
21274;SDS011;36472;52.170;20.884;2024-02-04T13:24:41;9.75;;;3.40;;
21274;SDS011;36472;52.170;20.884;2024-02-04T13:27:10;10.23;;;3.03;;
21274;SDS011;36472;52.170;20.884;2024-02-04T13:29:39;7.15;;;3.17;;
21274;SDS011;36472;52.170;20.884;2024-02-04T13:32:08;6.78;;;3.15;;
21274;SDS011;36472;52.170;20.884;2024-02-04T13:34:37;8.25;;;2.97;;
21274;SDS011;36472;52.170;20.884;2024-02-04T13:37:06;7.10;;;3.05;;
21274;SDS011;36472;52.170;20.884;2024-02-04T13:39:37;12.13;;;3.92;;
21274;SDS011;36472;52.170;20.884;2024-02-04T13:42:06;8.27;;;3.55;;
21274;SDS011;36472;52.170;20.884;2024-02-04T13:44:35;7.65;;;2.67;;
21274;SDS011;36472;52.170;20.884;2024-02-04T13:47:04;9.95;;;3.50;;
21274;SDS011;36472;52.170;20.884;2024-02-04T13:49:34;8.07;;;3.72;;
21274;SDS011;36472;52.170;20.884;2024-02-04T13:52:03;8.98;;;4.00;;
21274;SDS011;36472;52.170;20.884;2024-02-04T13:54:33;5.32;;;3.08;;
21274;SDS011;36472;52.170;20.884;2024-02-04T13:57:04;6.95;;;2.95;;
21274;SDS011;36472;52.170;20.884;2024-02-04T13:59:33;9.80;;;3.60;;
21274;SDS011;36472;52.170;20.884;2024-02-04T14:02:02;10.38;;;3.65;;
21274;SDS011;36472;52.170;20.884;2024-02-04T14:04:32;6.68;;;2.80;;
21274;SDS011;36472;52.170;20.884;2024-02-04T14:07:01;9.20;;;3.00;;
21274;SDS011;36472;52.170;20.884;2024-02-04T14:09:31;10.05;;;3.70;;
21274;SDS011;36472;52.170;20.884;2024-02-04T14:12:01;6.15;;;3.20;;
21274;SDS011;36472;52.170;20.884;2024-02-04T14:14:32;6.40;;;2.55;;
21274;SDS011;36472;52.170;20.884;2024-02-04T14:17:01;8.48;;;3.03;;
21274;SDS011;36472;52.170;20.884;2024-02-04T14:19:30;9.07;;;3.30;;
21274;SDS011;36472;52.170;20.884;2024-02-04T14:21:59;8.50;;;2.85;;
21274;SDS011;36472;52.170;20.884;2024-02-04T14:24:29;7.78;;;3.38;;
21274;SDS011;36472;52.170;20.884;2024-02-04T14:26:58;7.07;;;3.05;;
21274;SDS011;36472;52.170;20.884;2024-02-04T14:29:29;4.60;;;2.55;;
21274;SDS011;36472;52.170;20.884;2024-02-04T14:31:58;9.52;;;3.60;;
21274;SDS011;36472;52.170;20.884;2024-02-04T14:34:27;5.90;;;2.70;;
21274;SDS011;36472;52.170;20.884;2024-02-04T14:36:56;8.18;;;3.38;;
21274;SDS011;36472;52.170;20.884;2024-02-04T14:39:25;7.13;;;2.85;;
21274;SDS011;36472;52.170;20.884;2024-02-04T14:41:54;7.68;;;3.17;;
21274;SDS011;36472;52.170;20.884;2024-02-04T14:44:23;8.40;;;2.92;;
21274;SDS011;36472;52.170;20.884;2024-02-04T14:46:53;5.63;;;3.20;;
21274;SDS011;36472;52.170;20.884;2024-02-04T14:49:22;6.53;;;2.80;;
21274;SDS011;36472;52.170;20.884;2024-02-04T14:51:52;8.32;;;3.50;;